sensor_id;sensor_type;location;lat;lon;timestamp;pressure;altitude;pressure_sealevel;temperature;humidity
42727;BME280;28372;56.832;60.658;2022-11-06T00:01:50;97617.13;;;2.69;100.00
42727;BME280;28372;56.832;60.658;2022-11-06T00:04:17;97611.31;;;2.67;100.00
42727;BME280;28372;56.832;60.658;2022-11-06T00:06:45;97630.13;;;2.70;100.00
42727;BME280;28372;56.832;60.658;2022-11-06T00:09:17;97628.72;;;2.73;100.00
42727;BME280;28372;56.832;60.658;2022-11-06T00:11:47;97646.16;;;2.70;100.00
42727;BME280;28372;56.832;60.658;2022-11-06T00:14:15;97637.56;;;2.65;100.00
42727;BME280;28372;56.832;60.658;2022-11-06T00:16:45;97638.47;;;2.69;100.00
42727;BME280;28372;56.832;60.658;2022-11-06T00:19:13;97640.38;;;2.68;100.00
42727;BME280;28372;56.832;60.658;2022-11-06T00:21:41;97641.66;;;2.62;100.00
42727;BME280;28372;56.832;60.658;2022-11-06T00:24:11;97644.31;;;2.62;100.00
42727;BME280;28372;56.832;60.658;2022-11-06T00:26:39;97653.31;;;2.57;100.00
42727;BME280;28372;56.832;60.658;2022-11-06T00:29:12;97647.53;;;2.47;100.00
42727;BME280;28372;56.832;60.658;2022-11-06T00:31:39;97654.94;;;2.41;100.00
42727;BME280;28372;56.832;60.658;2022-11-06T00:34:08;97655.53;;;2.47;100.00
42727;BME280;28372;56.832;60.658;2022-11-06T00:36:36;97635.31;;;2.37;100.00
42727;BME280;28372;56.832;60.658;2022-11-06T00:39:04;97646.16;;;2.40;100.00
42727;BME280;28372;56.832;60.658;2022-11-06T00:41:31;97647.72;;;2.42;100.00
42727;BME280;28372;56.832;60.658;2022-11-06T00:44:00;97655.88;;;2.45;100.00
42727;BME280;28372;56.832;60.658;2022-11-06T00:46:28;97661.06;;;2.42;100.00
42727;BME280;28372;56.832;60.658;2022-11-06T00:48:56;97661.19;;;2.45;100.00
42727;BME280;28372;56.832;60.658;2022-11-06T00:51:27;97657.13;;;2.48;100.00
42727;BME280;28372;56.832;60.658;2022-11-06T00:53:57;97660.16;;;2.37;100.00
42727;BME280;28372;56.832;60.658;2022-11-06T00:56:25;97657.31;;;2.34;100.00
42727;BME280;28372;56.832;60.658;2022-11-06T00:58:53;97663.31;;;2.31;100.00
42727;BME280;28372;56.832;60.658;2022-11-06T01:01:23;97668.59;;;2.39;100.00
42727;BME280;28372;56.832;60.658;2022-11-06T01:04:02;97666.75;;;2.40;100.00
42727;BME280;28372;56.832;60.658;2022-11-06T01:06:38;97651.25;;;2.25;100.00
42727;BME280;28372;56.832;60.658;2022-11-06T01:09:07;97663.91;;;2.36;100.00
42727;BME280;28372;56.832;60.658;2022-11-06T01:11:37;97676.00;;;2.34;100.00
42727;BME280;28372;56.832;60.658;2022-11-06T01:14:25;97677.09;;;2.42;100.00
42727;BME280;28372;56.832;60.658;2022-11-06T01:16:54;97675.22;;;2.33;100.00
42727;BME280;28372;56.832;60.658;2022-11-06T01:19:22;97673.81;;;2.36;100.00
42727;BME280;28372;56.832;60.658;2022-11-06T01:21:51;97672.88;;;2.32;100.00
42727;BME280;28372;56.832;60.658;2022-11-06T01:24:24;97672.06;;;2.40;100.00
42727;BME280;28372;56.832;60.658;2022-11-06T01:26:53;97678.50;;;2.39;100.00
42727;BME280;28372;56.832;60.658;2022-11-06T01:29:40;97671.16;;;2.36;100.00
42727;BME280;28372;56.832;60.658;2022-11-06T01:32:08;97678.84;;;2.37;100.00
42727;BME280;28372;56.832;60.658;2022-11-06T01:34:36;97668.31;;;2.32;100.00
42727;BME280;28372;56.832;60.658;2022-11-06T01:37:04;97686.22;;;2.32;100.00
42727;BME280;28372;56.832;60.658;2022-11-06T01:39:34;97687.63;;;2.38;100.00
42727;BME280;28372;56.832;60.658;2022-11-06T01:42:01;97695.16;;;2.36;100.00
42727;BME280;28372;56.832;60.658;2022-11-06T01:45:00;97694.81;;;2.46;100.00
42727;BME280;28372;56.832;60.658;2022-11-06T01:47:25;97701.44;;;2.40;100.00
42727;BME280;28372;56.832;60.658;2022-11-06T01:49:56;97691.84;;;2.39;100.00
42727;BME280;28372;56.832;60.658;2022-11-06T01:52:26;97678.88;;;2.29;100.00
42727;BME280;28372;56.832;60.658;2022-11-06T01:54:58;97691.56;;;2.32;100.00
42727;BME280;28372;56.832;60.658;2022-11-06T01:57:28;97698.34;;;2.20;100.00
42727;BME280;28372;56.832;60.658;2022-11-06T01:59:56;97687.81;;;2.24;100.00
42727;BME280;28372;56.832;60.658;2022-11-06T02:02:24;97695.66;;;2.29;100.00
42727;BME280;28372;56.832;60.658;2022-11-06T02:04:51;97697.22;;;2.30;100.00
42727;BME280;28372;56.832;60.658;2022-11-06T02:07:19;97694.84;;;2.37;100.00
42727;BME280;28372;56.832;60.658;2022-11-06T02:09:47;97691.16;;;2.51;100.00
42727;BME280;28372;56.832;60.658;2022-11-06T02:15:26;97694.59;;;2.60;100.00
42727;BME280;28372;56.832;60.658;2022-11-06T02:18:04;97703.09;;;2.53;100.00
42727;BME280;28372;56.832;60.658;2022-11-06T02:24:02;97715.19;;;2.60;100.00
42727;BME280;28372;56.832;60.658;2022-11-06T02:29:32;97707.66;;;2.53;100.00
42727;BME280;28372;56.832;60.658;2022-11-06T02:32:07;97710.78;;;2.55;100.00
42727;BME280;28372;56.832;60.658;2022-11-06T02:34:38;97698.91;;;2.44;100.00
42727;BME280;28372;56.832;60.658;2022-11-06T02:37:10;97707.66;;;2.53;100.00
42727;BME280;28372;56.832;60.658;2022-11-06T02:39:41;97704.72;;;2.46;100.00
42727;BME280;28372;56.832;60.658;2022-11-06T02:42:13;97717.91;;;2.42;100.00
42727;BME280;28372;56.832;60.658;2022-11-06T02:44:43;97702.53;;;2.39;100.00
42727;BME280;28372;56.832;60.658;2022-11-06T02:47:13;97714.47;;;2.42;100.00
42727;BME280;28372;56.832;60.658;2022-11-06T02:49:52;97706.09;;;2.52;100.00
42727;BME280;28372;56.832;60.658;2022-11-06T02:52:31;97724.13;;;2.55;100.00
42727;BME280;28372;56.832;60.658;2022-11-06T02:55:23;97708.16;;;2.46;100.00
42727;BME280;28372;56.832;60.658;2022-11-06T02:57:56;97713.22;;;2.39;100.00
42727;BME280;28372;56.832;60.658;2022-11-06T03:00:27;97700.50;;;2.36;100.00
42727;BME280;28372;56.832;60.658;2022-11-06T03:03:00;97712.56;;;2.42;100.00
42727;BME280;28372;56.832;60.658;2022-11-06T03:05:36;97719.00;;;2.41;100.00
42727;BME280;28372;56.832;60.658;2022-11-06T03:11:00;97721.84;;;2.36;100.00
42727;BME280;28372;56.832;60.658;2022-11-06T03:27:11;97737.56;;;2.37;100.00
42727;BME280;28372;56.832;60.658;2022-11-06T03:30:00;97717.78;;;2.38;100.00
42727;BME280;28372;56.832;60.658;2022-11-06T03:35:52;97724.97;;;2.38;100.00
42727;BME280;28372;56.832;60.658;2022-11-06T03:38:29;97723.13;;;2.30;100.00
42727;BME280;28372;56.832;60.658;2022-11-06T03:41:09;97719.03;;;2.32;100.00
42727;BME280;28372;56.832;60.658;2022-11-06T03:43:37;97722.03;;;2.31;100.00
42727;BME280;28372;56.832;60.658;2022-11-06T03:46:13;97730.03;;;2.31;100.00
42727;BME280;28372;56.832;60.658;2022-11-06T03:48:47;97722.03;;;2.31;100.00
42727;BME280;28372;56.832;60.658;2022-11-06T03:51:23;97730.31;;;2.38;100.00
42727;BME280;28372;56.832;60.658;2022-11-06T03:53:59;97731.59;;;2.32;100.00
42727;BME280;28372;56.832;60.658;2022-11-06T03:56:38;97738.00;;;2.39;100.00
42727;BME280;28372;56.832;60.658;2022-11-06T03:59:08;97729.38;;;2.34;100.00
42727;BME280;28372;56.832;60.658;2022-11-06T04:01:39;97738.00;;;2.39;100.00
42727;BME280;28372;56.832;60.658;2022-11-06T04:04:15;97738.94;;;2.44;100.00
42727;BME280;28372;56.832;60.658;2022-11-06T04:06:54;97749.91;;;2.51;100.00
42727;BME280;28372;56.832;60.658;2022-11-06T04:09:26;97731.72;;;2.44;100.00
42727;BME280;28372;56.832;60.658;2022-11-06T04:12:17;97744.13;;;2.49;100.00
42727;BME280;28372;56.832;60.658;2022-11-06T04:15:05;97739.41;;;2.46;100.00
42727;BME280;28372;56.832;60.658;2022-11-06T04:17:35;97744.56;;;2.51;100.00
42727;BME280;28372;56.832;60.658;2022-11-06T04:20:07;97739.09;;;2.47;100.00
42727;BME280;28372;56.832;60.658;2022-11-06T04:28:30;97746.94;;;2.44;100.00
42727;BME280;28372;56.832;60.658;2022-11-06T04:36:50;97755.94;;;2.30;100.00
42727;BME280;28372;56.832;60.658;2022-11-06T04:45:00;97761.75;;;2.23;100.00
42727;BME280;28372;56.832;60.658;2022-11-06T04:47:30;97773.19;;;2.24;100.00
42727;BME280;28372;56.832;60.658;2022-11-06T04:49:58;97759.88;;;2.24;100.00
42727;BME280;28372;56.832;60.658;2022-11-06T04:52:29;97762.53;;;2.24;100.00
42727;BME280;28372;56.832;60.658;2022-11-06T04:54:57;97764.28;;;2.29;100.00
42727;BME280;28372;56.832;60.658;2022-11-06T04:57:25;97765.53;;;2.22;100.00
42727;BME280;28372;56.832;60.658;2022-11-06T04:59:53;97749.03;;;2.12;100.00
42727;BME280;28372;56.832;60.658;2022-11-06T05:02:23;97754.72;;;2.19;100.00
42727;BME280;28372;56.832;60.658;2022-11-06T05:04:50;97752.66;;;2.16;100.00
42727;BME280;28372;56.832;60.658;2022-11-06T05:07:19;97749.19;;;2.24;100.00
42727;BME280;28372;56.832;60.658;2022-11-06T05:09:46;97745.25;;;2.21;100.00
42727;BME280;28372;56.832;60.658;2022-11-06T05:12:14;97762.69;;;2.28;100.00
42727;BME280;28372;56.832;60.658;2022-11-06T05:14:41;97755.63;;;2.32;100.00
42727;BME280;28372;56.832;60.658;2022-11-06T05:17:08;97755.31;;;2.33;100.00
42727;BME280;28372;56.832;60.658;2022-11-06T05:19:36;97757.16;;;2.33;100.00
42727;BME280;28372;56.832;60.658;2022-11-06T05:22:03;97751.03;;;2.41;100.00
42727;BME280;28372;56.832;60.658;2022-11-06T05:24:49;97756.97;;;2.47;100.00
42727;BME280;28372;56.832;60.658;2022-11-06T05:27:16;97753.22;;;2.48;100.00
42727;BME280;28372;56.832;60.658;2022-11-06T05:29:44;97752.56;;;2.51;100.00
42727;BME280;28372;56.832;60.658;2022-11-06T05:32:12;97759.66;;;2.55;100.00
42727;BME280;28372;56.832;60.658;2022-11-06T05:34:39;97754.13;;;2.61;100.00
42727;BME280;28372;56.832;60.658;2022-11-06T05:37:10;97760.41;;;2.56;100.00
42727;BME280;28372;56.832;60.658;2022-11-06T05:39:38;97751.47;;;2.52;100.00
42727;BME280;28372;56.832;60.658;2022-11-06T05:42:08;97747.22;;;2.60;100.00
42727;BME280;28372;56.832;60.658;2022-11-06T05:44:35;97747.84;;;2.65;100.00
42727;BME280;28372;56.832;60.658;2022-11-06T05:47:04;97754.09;;;2.69;100.00
42727;BME280;28372;56.832;60.658;2022-11-06T05:49:31;97748.88;;;2.73;100.00
42727;BME280;28372;56.832;60.658;2022-11-06T05:51:58;97757.19;;;2.80;100.00
42727;BME280;28372;56.832;60.658;2022-11-06T05:54:26;97750.28;;;2.79;100.00
42727;BME280;28372;56.832;60.658;2022-11-06T05:56:53;97758.31;;;2.79;100.00
42727;BME280;28372;56.832;60.658;2022-11-06T05:59:20;97752.44;;;2.86;100.00
42727;BME280;28372;56.832;60.658;2022-11-06T06:01:48;97754.88;;;2.70;100.00
42727;BME280;28372;56.832;60.658;2022-11-06T06:04:15;97759.13;;;2.71;100.00
42727;BME280;28372;56.832;60.658;2022-11-06T06:06:43;97756.25;;;2.76;100.00
42727;BME280;28372;56.832;60.658;2022-11-06T06:09:10;97753.25;;;2.78;100.00
42727;BME280;28372;56.832;60.658;2022-11-06T06:11:38;97754.19;;;2.82;100.00
42727;BME280;28372;56.832;60.658;2022-11-06T06:14:06;97742.69;;;2.90;100.00
42727;BME280;28372;56.832;60.658;2022-11-06T06:16:33;97747.72;;;2.91;100.00
42727;BME280;28372;56.832;60.658;2022-11-06T06:19:01;97739.53;;;2.97;100.00
42727;BME280;28372;56.832;60.658;2022-11-06T06:21:28;97740.13;;;3.02;100.00
42727;BME280;28372;56.832;60.658;2022-11-06T06:23:55;97734.31;;;3.00;100.00
42727;BME280;28372;56.832;60.658;2022-11-06T06:26:23;97745.63;;;3.06;100.00
42727;BME280;28372;56.832;60.658;2022-11-06T06:28:50;97737.28;;;3.07;100.00
42727;BME280;28372;56.832;60.658;2022-11-06T06:31:18;97742.09;;;3.14;100.00
42727;BME280;28372;56.832;60.658;2022-11-06T06:33:45;97735.38;;;3.08;100.00
42727;BME280;28372;56.832;60.658;2022-11-06T06:36:12;97742.13;;;3.05;100.00
42727;BME280;28372;56.832;60.658;2022-11-06T06:38:40;97757.22;;;3.10;100.00
42727;BME280;28372;56.832;60.658;2022-11-06T06:41:08;97753.09;;;3.13;100.00
42727;BME280;28372;56.832;60.658;2022-11-06T06:43:35;97743.00;;;3.18;100.00
42727;BME280;28372;56.832;60.658;2022-11-06T06:46:05;97747.53;;;3.26;100.00
42727;BME280;28372;56.832;60.658;2022-11-06T06:48:33;97753.34;;;3.29;100.00
42727;BME280;28372;56.832;60.658;2022-11-06T06:51:02;97752.03;;;3.35;100.00
42727;BME280;28372;56.832;60.658;2022-11-06T06:53:29;97750.16;;;3.35;100.00
42727;BME280;28372;56.832;60.658;2022-11-06T06:55:58;97757.53;;;3.38;100.00
42727;BME280;28372;56.832;60.658;2022-11-06T06:58:27;97747.50;;;3.35;100.00
42727;BME280;28372;56.832;60.658;2022-11-06T07:00:58;97741.16;;;3.40;100.00
42727;BME280;28372;56.832;60.658;2022-11-06T07:03:27;97748.53;;;3.43;100.00
42727;BME280;28372;56.832;60.658;2022-11-06T07:05:56;97743.00;;;3.48;100.00
42727;BME280;28372;56.832;60.658;2022-11-06T07:08:25;97762.63;;;3.52;100.00
42727;BME280;28372;56.832;60.658;2022-11-06T07:11:01;97740.44;;;3.52;100.00
42727;BME280;28372;56.832;60.658;2022-11-06T07:13:28;97747.22;;;3.49;100.00
42727;BME280;28372;56.832;60.658;2022-11-06T07:16:07;97742.34;;;3.51;100.00
42727;BME280;28372;56.832;60.658;2022-11-06T07:18:35;97754.59;;;3.52;100.00
42727;BME280;28372;56.832;60.658;2022-11-06T07:21:08;97750.63;;;3.58;100.00
42727;BME280;28372;56.832;60.658;2022-11-06T07:23:37;97746.03;;;3.59;100.00
42727;BME280;28372;56.832;60.658;2022-11-06T07:26:05;97747.34;;;3.53;100.00
42727;BME280;28372;56.832;60.658;2022-11-06T07:28:32;97742.53;;;3.67;100.00
42727;BME280;28372;56.832;60.658;2022-11-06T07:31:02;97747.81;;;3.76;100.00
42727;BME280;28372;56.832;60.658;2022-11-06T07:33:30;97747.81;;;3.76;100.00
42727;BME280;28372;56.832;60.658;2022-11-06T07:36:02;97743.69;;;3.78;100.00
42727;BME280;28372;56.832;60.658;2022-11-06T07:38:32;97745.25;;;3.80;100.00
42727;BME280;28372;56.832;60.658;2022-11-06T07:41:09;97741.41;;;3.89;100.00
42727;BME280;28372;56.832;60.658;2022-11-06T07:43:37;97754.69;;;3.86;100.00
42727;BME280;28372;56.832;60.658;2022-11-06T07:46:07;97742.19;;;3.90;100.00
42727;BME280;28372;56.832;60.658;2022-11-06T07:48:34;97739.59;;;3.81;100.00
42727;BME280;28372;56.832;60.658;2022-11-06T07:51:04;97727.97;;;3.77;100.00
42727;BME280;28372;56.832;60.658;2022-11-06T07:53:32;97730.91;;;3.84;100.00
42727;BME280;28372;56.832;60.658;2022-11-06T07:56:00;97734.38;;;3.85;100.00
42727;BME280;28372;56.832;60.658;2022-11-06T07:58:28;97726.69;;;3.83;100.00
42727;BME280;28372;56.832;60.658;2022-11-06T08:00:57;97726.78;;;3.87;100.00
42727;BME280;28372;56.832;60.658;2022-11-06T08:03:26;97727.91;;;3.86;100.00
42727;BME280;28372;56.832;60.658;2022-11-06T08:05:57;97726.34;;;3.85;100.00
42727;BME280;28372;56.832;60.658;2022-11-06T08:08:26;97723.34;;;3.86;100.00
42727;BME280;28372;56.832;60.658;2022-11-06T08:10:53;97725.53;;;3.84;100.00
42727;BME280;28372;56.832;60.658;2022-11-06T08:13:21;97728.34;;;3.88;100.00
42727;BME280;28372;56.832;60.658;2022-11-06T08:15:48;97719.22;;;3.89;100.00
42727;BME280;28372;56.832;60.658;2022-11-06T08:18:15;97718.25;;;3.93;100.00
42727;BME280;28372;56.832;60.658;2022-11-06T08:20:45;97718.94;;;4.03;100.00
42727;BME280;28372;56.832;60.658;2022-11-06T08:23:12;97717.63;;;4.09;100.00
42727;BME280;28372;56.832;60.658;2022-11-06T08:25:40;97717.47;;;4.05;100.00
42727;BME280;28372;56.832;60.658;2022-11-06T08:28:08;97716.91;;;4.00;100.00
42727;BME280;28372;56.832;60.658;2022-11-06T08:30:35;97716.91;;;4.00;100.00
42727;BME280;28372;56.832;60.658;2022-11-06T08:33:06;97725.31;;;4.10;100.00
42727;BME280;28372;56.832;60.658;2022-11-06T08:35:34;97719.84;;;4.07;100.00
42727;BME280;28372;56.832;60.658;2022-11-06T08:38:02;97712.34;;;4.00;100.00
42727;BME280;28372;56.832;60.658;2022-11-06T08:40:30;97723.50;;;4.02;100.00
42727;BME280;28372;56.832;60.658;2022-11-06T08:42:59;97719.72;;;4.03;100.00
42727;BME280;28372;56.832;60.658;2022-11-06T08:45:27;97722.94;;;3.97;100.00
42727;BME280;28372;56.832;60.658;2022-11-06T08:47:59;97727.09;;;4.06;100.00
42727;BME280;28372;56.832;60.658;2022-11-06T08:50:28;97726.31;;;4.06;100.00
42727;BME280;28372;56.832;60.658;2022-11-06T08:52:56;97735.25;;;4.10;100.00
42727;BME280;28372;56.832;60.658;2022-11-06T08:55:24;97720.81;;;4.02;100.00
42727;BME280;28372;56.832;60.658;2022-11-06T08:57:54;97732.25;;;4.11;100.00
42727;BME280;28372;56.832;60.658;2022-11-06T09:00:22;97730.66;;;4.10;100.00
42727;BME280;28372;56.832;60.658;2022-11-06T09:02:50;97737.47;;;4.08;100.00
42727;BME280;28372;56.832;60.658;2022-11-06T09:05:17;97734.91;;;4.11;100.00
42727;BME280;28372;56.832;60.658;2022-11-06T09:07:45;97733.00;;;4.12;100.00
42727;BME280;28372;56.832;60.658;2022-11-06T09:10:12;97731.91;;;4.13;100.00
42727;BME280;28372;56.832;60.658;2022-11-06T09:12:40;97730.66;;;4.10;100.00
42727;BME280;28372;56.832;60.658;2022-11-06T09:15:07;97734.44;;;4.09;100.00
42727;BME280;28372;56.832;60.658;2022-11-06T09:17:42;97746.31;;;4.21;100.00
42727;BME280;28372;56.832;60.658;2022-11-06T09:20:11;97749.06;;;4.12;100.00
42727;BME280;28372;56.832;60.658;2022-11-06T09:22:39;97737.94;;;4.10;100.00
42727;BME280;28372;56.832;60.658;2022-11-06T09:25:08;97742.63;;;4.13;100.00
42727;BME280;28372;56.832;60.658;2022-11-06T09:27:45;97749.66;;;4.18;100.00
42727;BME280;28372;56.832;60.658;2022-11-06T09:30:16;97746.19;;;4.17;100.00
42727;BME280;28372;56.832;60.658;2022-11-06T09:32:49;97748.53;;;4.19;100.00
42727;BME280;28372;56.832;60.658;2022-11-06T09:35:18;97743.84;;;4.16;100.00
42727;BME280;28372;56.832;60.658;2022-11-06T09:37:46;97748.41;;;4.15;100.00
42727;BME280;28372;56.832;60.658;2022-11-06T09:40:32;97745.19;;;4.22;100.00
42727;BME280;28372;56.832;60.658;2022-11-06T09:45:41;97753.19;;;4.09;100.00
42727;BME280;28372;56.832;60.658;2022-11-06T09:48:12;97742.81;;;4.08;100.00
42727;BME280;28372;56.832;60.658;2022-11-06T09:50:54;97745.72;;;4.15;100.00
42727;BME280;28372;56.832;60.658;2022-11-06T09:53:36;97748.63;;;4.10;100.00
42727;BME280;28372;56.832;60.658;2022-11-06T09:56:09;97744.66;;;3.95;100.00
42727;BME280;28372;56.832;60.658;2022-11-06T09:58:40;97748.72;;;4.01;100.00
42727;BME280;28372;56.832;60.658;2022-11-06T10:01:17;97751.50;;;4.05;100.00
42727;BME280;28372;56.832;60.658;2022-11-06T10:03:54;97747.91;;;4.01;100.00
42727;BME280;28372;56.832;60.658;2022-11-06T10:06:23;97740.13;;;3.96;100.00
42727;BME280;28372;56.832;60.658;2022-11-06T10:08:54;97745.66;;;3.90;100.00
42727;BME280;28372;56.832;60.658;2022-11-06T10:11:29;97753.69;;;3.90;100.00
42727;BME280;28372;56.832;60.658;2022-11-06T10:14:23;97758.63;;;4.01;100.00
42727;BME280;28372;56.832;60.658;2022-11-06T10:17:10;97758.84;;;3.96;100.00
42727;BME280;28372;56.832;60.658;2022-11-06T10:19:49;97758.84;;;3.96;100.00
42727;BME280;28372;56.832;60.658;2022-11-06T10:25:19;97754.06;;;4.01;100.00
42727;BME280;28372;56.832;60.658;2022-11-06T10:28:03;97753.22;;;3.88;100.00
42727;BME280;28372;56.832;60.658;2022-11-06T10:31:04;97758.13;;;3.86;100.00
42727;BME280;28372;56.832;60.658;2022-11-06T10:33:53;97757.41;;;3.77;97.55
42727;BME280;28372;56.832;60.658;2022-11-06T10:36:27;97759.69;;;3.66;97.06
42727;BME280;28372;56.832;60.658;2022-11-06T10:39:02;97765.56;;;3.59;97.83
42727;BME280;28372;56.832;60.658;2022-11-06T10:41:33;97766.00;;;3.62;99.85
42727;BME280;28372;56.832;60.658;2022-11-06T10:44:09;97771.56;;;3.56;100.00
42727;BME280;28372;56.832;60.658;2022-11-06T10:46:45;97766.81;;;3.62;100.00
42727;BME280;28372;56.832;60.658;2022-11-06T10:49:52;97775.34;;;3.76;100.00
42727;BME280;28372;56.832;60.658;2022-11-06T10:52:25;97776.19;;;3.68;100.00
42727;BME280;28372;56.832;60.658;2022-11-06T10:55:19;97774.03;;;3.62;100.00
42727;BME280;28372;56.832;60.658;2022-11-06T11:00:33;97780.88;;;3.50;98.56
42727;BME280;28372;56.832;60.658;2022-11-06T11:03:04;97774.75;;;3.50;100.00
42727;BME280;28372;56.832;60.658;2022-11-06T11:05:42;97777.84;;;3.60;100.00
42727;BME280;28372;56.832;60.658;2022-11-06T11:13:46;97787.03;;;3.51;100.00
42727;BME280;28372;56.832;60.658;2022-11-06T11:16:27;97779.13;;;3.54;100.00
42727;BME280;28372;56.832;60.658;2022-11-06T11:19:14;97782.38;;;3.60;100.00
42727;BME280;28372;56.832;60.658;2022-11-06T11:21:57;97791.84;;;3.57;100.00
42727;BME280;28372;56.832;60.658;2022-11-06T11:24:26;97791.31;;;3.43;99.04
42727;BME280;28372;56.832;60.658;2022-11-06T11:27:05;97805.25;;;3.49;100.00
42727;BME280;28372;56.832;60.658;2022-11-06T11:29:41;97798.88;;;3.41;100.00
42727;BME280;28372;56.832;60.658;2022-11-06T11:32:13;97799.97;;;3.40;100.00
42727;BME280;28372;56.832;60.658;2022-11-06T11:34:50;97802.47;;;3.45;100.00
42727;BME280;28372;56.832;60.658;2022-11-06T11:37:30;97807.03;;;3.45;100.00
42727;BME280;28372;56.832;60.658;2022-11-06T11:42:45;97811.00;;;3.38;100.00
42727;BME280;28372;56.832;60.658;2022-11-06T11:45:17;97807.66;;;3.41;100.00
42727;BME280;28372;56.832;60.658;2022-11-06T11:47:47;97820.25;;;3.41;100.00
42727;BME280;28372;56.832;60.658;2022-11-06T11:50:23;97815.53;;;3.38;100.00
42727;BME280;28372;56.832;60.658;2022-11-06T11:53:02;97806.44;;;3.39;100.00
42727;BME280;28372;56.832;60.658;2022-11-06T11:55:43;97818.22;;;3.38;100.00
42727;BME280;28372;56.832;60.658;2022-11-06T11:58:22;97814.91;;;3.41;100.00
42727;BME280;28372;56.832;60.658;2022-11-06T12:01:02;97809.75;;;3.36;100.00
42727;BME280;28372;56.832;60.658;2022-11-06T12:03:39;97814.91;;;3.41;100.00
42727;BME280;28372;56.832;60.658;2022-11-06T12:06:16;97823.72;;;3.41;100.00
42727;BME280;28372;56.832;60.658;2022-11-06T12:08:54;97822.78;;;3.37;100.00
42727;BME280;28372;56.832;60.658;2022-11-06T12:11:24;97823.28;;;3.31;100.00
42727;BME280;28372;56.832;60.658;2022-11-06T12:16:49;97827.53;;;3.32;100.00
42727;BME280;28372;56.832;60.658;2022-11-06T12:19:21;97823.00;;;3.23;100.00
42727;BME280;28372;56.832;60.658;2022-11-06T12:21:57;97817.66;;;3.23;100.00
42727;BME280;28372;56.832;60.658;2022-11-06T12:24:40;97832.22;;;3.35;100.00
42727;BME280;28372;56.832;60.658;2022-11-06T12:27:17;97828.63;;;3.31;100.00
42727;BME280;28372;56.832;60.658;2022-11-06T12:29:50;97832.94;;;3.23;100.00
42727;BME280;28372;56.832;60.658;2022-11-06T12:32:28;97827.81;;;3.09;100.00
42727;BME280;28372;56.832;60.658;2022-11-06T12:40:17;97836.41;;;3.15;100.00
42727;BME280;28372;56.832;60.658;2022-11-06T12:45:19;97834.41;;;3.12;100.00
42727;BME280;28372;56.832;60.658;2022-11-06T12:48:12;97836.25;;;3.20;100.00
42727;BME280;28372;56.832;60.658;2022-11-06T12:53:56;97845.53;;;3.14;100.00
42727;BME280;28372;56.832;60.658;2022-11-06T12:56:44;97836.69;;;3.22;100.00
42727;BME280;28372;56.832;60.658;2022-11-06T13:02:29;97842.03;;;3.22;100.00
42727;BME280;28372;56.832;60.658;2022-11-06T13:05:10;97849.63;;;3.11;100.00
42727;BME280;28372;56.832;60.658;2022-11-06T13:13:30;97848.81;;;3.19;100.00
42727;BME280;28372;56.832;60.658;2022-11-06T13:24:45;97857.63;;;3.20;100.00
42727;BME280;28372;56.832;60.658;2022-11-06T13:30:05;97869.22;;;3.24;100.00
42727;BME280;28372;56.832;60.658;2022-11-06T13:32:41;97871.78;;;3.20;100.00
42727;BME280;28372;56.832;60.658;2022-11-06T13:35:18;97875.53;;;3.19;100.00
42727;BME280;28372;56.832;60.658;2022-11-06T13:37:47;97877.44;;;3.19;100.00
42727;BME280;28372;56.832;60.658;2022-11-06T13:43:13;97880.56;;;3.30;100.00
42727;BME280;28372;56.832;60.658;2022-11-06T13:46:07;97878.00;;;3.33;100.00
42727;BME280;28372;56.832;60.658;2022-11-06T13:52:00;97876.09;;;3.34;100.00
42727;BME280;28372;56.832;60.658;2022-11-06T13:54:34;97882.75;;;3.28;100.00
42727;BME280;28372;56.832;60.658;2022-11-06T14:03:14;97874.00;;;3.48;100.00
42727;BME280;28372;56.832;60.658;2022-11-06T14:08:34;97882.69;;;3.36;100.00
42727;BME280;28372;56.832;60.658;2022-11-06T14:11:14;97887.88;;;3.41;100.00
42727;BME280;28372;56.832;60.658;2022-11-06T14:13:56;97893.22;;;3.41;100.00
42727;BME280;28372;56.832;60.658;2022-11-06T14:16:33;97892.63;;;3.36;100.00
42727;BME280;28372;56.832;60.658;2022-11-06T14:19:13;97890.22;;;3.43;100.00
42727;BME280;28372;56.832;60.658;2022-11-06T14:21:53;97878.78;;;3.34;100.00
42727;BME280;28372;56.832;60.658;2022-11-06T14:24:31;97889.13;;;3.44;100.00
42727;BME280;28372;56.832;60.658;2022-11-06T14:27:02;97893.22;;;3.41;100.00
42727;BME280;28372;56.832;60.658;2022-11-06T14:32:11;97899.63;;;3.49;100.00
42727;BME280;28372;56.832;60.658;2022-11-06T14:40:37;97893.50;;;3.49;100.00
42727;BME280;28372;56.832;60.658;2022-11-06T14:48:31;97894.94;;;3.46;100.00
42727;BME280;28372;56.832;60.658;2022-11-06T14:51:02;97897.16;;;3.44;100.00
42727;BME280;28372;56.832;60.658;2022-11-06T14:53:58;97888.59;;;3.59;100.00
42727;BME280;28372;56.832;60.658;2022-11-06T14:56:31;97882.47;;;3.50;100.00
42727;BME280;28372;56.832;60.658;2022-11-06T14:59:06;97891.44;;;3.54;100.00
42727;BME280;28372;56.832;60.658;2022-11-06T15:01:36;97886.72;;;3.51;100.00
42727;BME280;28372;56.832;60.658;2022-11-06T15:04:05;97883.47;;;3.46;100.00
42727;BME280;28372;56.832;60.658;2022-11-06T15:06:43;97879.22;;;3.45;100.00
42727;BME280;28372;56.832;60.658;2022-11-06T15:12:05;97879.38;;;3.48;98.00
42727;BME280;28372;56.832;60.658;2022-11-06T15:17:10;97891.47;;;3.46;98.71
42727;BME280;28372;56.832;60.658;2022-11-06T15:19:56;97887.84;;;3.50;99.29
42727;BME280;28372;56.832;60.658;2022-11-06T15:22:42;97881.56;;;3.46;99.74
42727;BME280;28372;56.832;60.658;2022-11-06T15:25:18;97880.00;;;3.45;100.00
42727;BME280;28372;56.832;60.658;2022-11-06T15:28:03;97881.28;;;3.39;96.75
42727;BME280;28372;56.832;60.658;2022-11-06T15:30:50;97872.88;;;3.49;95.11